createdAt,value
2023-05-08T00:01:33.406Z,7.84
2023-05-08T00:04:02.068Z,7.81
2023-05-08T00:06:31.373Z,7.79
2023-05-08T00:08:59.700Z,7.76
2023-05-08T00:11:34.457Z,7.72
2023-05-08T00:14:04.888Z,7.71
2023-05-08T00:16:33.642Z,7.69
2023-05-08T00:19:02.363Z,7.66
2023-05-08T00:21:31.470Z,7.62
2023-05-08T00:23:59.989Z,7.57
2023-05-08T00:26:28.544Z,7.54
2023-05-08T00:28:57.020Z,7.52
2023-05-08T00:31:25.739Z,7.48
2023-05-08T00:33:54.595Z,7.45
2023-05-08T00:36:23.072Z,7.42
2023-05-08T00:38:51.544Z,7.41
2023-05-08T00:41:20.064Z,7.38
2023-05-08T00:43:48.829Z,7.35
2023-05-08T00:46:18.096Z,7.31
2023-05-08T00:48:47.340Z,7.29
2023-05-08T00:51:16.628Z,7.27
2023-05-08T00:53:45.581Z,7.23
2023-05-08T00:56:17.053Z,7.19
2023-05-08T00:58:45.920Z,7.15
2023-05-08T01:01:16.249Z,7.13
2023-05-08T01:03:45.480Z,7.04
2023-05-08T01:06:14.171Z,7.07
2023-05-08T01:08:45.616Z,7.03
2023-05-08T01:11:51.984Z,6.98
2023-05-08T01:14:21.809Z,6.91
2023-05-08T01:17:05.552Z,6.86
2023-05-08T01:19:54.265Z,6.83
2023-05-08T01:22:54.117Z,6.77
2023-05-08T01:26:00.582Z,6.71
2023-05-08T01:28:41.614Z,6.64
2023-05-08T01:31:28.844Z,6.60
2023-05-08T01:34:05.587Z,6.55
2023-05-08T01:36:41.706Z,6.51
2023-05-08T01:39:32.766Z,6.50
2023-05-08T01:42:08.479Z,6.47
2023-05-08T01:44:44.026Z,6.47
2023-05-08T01:47:18.467Z,6.46
2023-05-08T01:49:50.985Z,6.43
2023-05-08T01:52:28.728Z,6.43
2023-05-08T01:55:05.804Z,6.40
2023-05-08T01:57:38.679Z,6.37
2023-05-08T02:00:08.609Z,6.39
2023-05-08T02:02:41.138Z,6.36
2023-05-08T02:05:11.208Z,6.34
2023-05-08T02:07:41.430Z,6.34
2023-05-08T02:10:11.844Z,6.34
2023-05-08T02:12:43.409Z,6.34
2023-05-08T02:15:16.101Z,6.34
2023-05-08T02:17:48.905Z,6.34
2023-05-08T02:20:18.914Z,6.34
2023-05-08T02:22:51.505Z,6.34
2023-05-08T02:25:20.237Z,6.35
2023-05-08T02:27:50.954Z,6.31
2023-05-08T02:30:22.226Z,6.31
2023-05-08T02:32:53.522Z,6.27
2023-05-08T02:35:23.662Z,6.25
2023-05-08T02:37:55.634Z,6.24
2023-05-08T02:40:28.021Z,6.22
2023-05-08T02:42:57.538Z,6.21
2023-05-08T02:45:33.203Z,6.19
2023-05-08T02:48:15.697Z,6.18
2023-05-08T02:51:00.666Z,6.17
2023-05-08T02:53:37.946Z,6.15
2023-05-08T02:56:15.537Z,6.11
2023-05-08T02:58:49.655Z,6.09
2023-05-08T03:01:30.393Z,6.06
2023-05-08T03:04:08.077Z,6.02
2023-05-08T03:06:47.149Z,5.98
2023-05-08T03:09:21.142Z,5.97
2023-05-08T03:11:54.029Z,5.95
2023-05-08T03:14:27.337Z,5.93
2023-05-08T03:16:58.254Z,5.92
2023-05-08T03:19:36.785Z,5.91
2023-05-08T03:22:09.078Z,5.87
2023-05-08T03:24:40.291Z,5.86
2023-05-08T03:27:14.406Z,5.83
2023-05-08T03:29:45.889Z,5.80
2023-05-08T03:32:15.400Z,5.79
2023-05-08T03:34:44.971Z,5.79
2023-05-08T03:37:13.565Z,5.80
2023-05-08T03:39:42.359Z,5.83
2023-05-08T03:42:21.908Z,5.87
2023-05-08T03:44:54.873Z,5.87
2023-05-08T03:47:27.942Z,6.01
2023-05-08T03:49:57.641Z,6.10
2023-05-08T03:52:27.124Z,6.18
2023-05-08T03:54:56.078Z,6.30
2023-05-08T03:57:28.050Z,6.41
2023-05-08T04:00:20.797Z,6.54
2023-05-08T04:03:25.227Z,6.67
2023-05-08T04:06:08.186Z,6.82
2023-05-08T04:08:49.613Z,6.95
2023-05-08T04:11:31.949Z,7.08
2023-05-08T04:14:07.381Z,7.19
2023-05-08T04:16:44.991Z,7.31
2023-05-08T04:19:25.123Z,7.42
2023-05-08T04:21:59.141Z,7.51
2023-05-08T04:24:30.804Z,7.59
2023-05-08T04:27:01.906Z,7.67
2023-05-08T04:29:33.704Z,7.76
2023-05-08T04:32:05.656Z,7.84
2023-05-08T04:34:36.134Z,7.92
2023-05-08T04:37:07.568Z,8.00
2023-05-08T04:39:36.526Z,8.08
2023-05-08T04:42:05.933Z,8.16
2023-05-08T04:44:35.895Z,8.27
2023-05-08T04:47:04.642Z,8.37
2023-05-08T04:49:33.950Z,8.45
2023-05-08T04:52:02.436Z,8.55
2023-05-08T04:54:31.096Z,8.65
2023-05-08T04:56:59.979Z,8.75
2023-05-08T04:59:29.694Z,8.88
2023-05-08T05:01:59.382Z,9.01
2023-05-08T05:04:29.538Z,9.12
2023-05-08T05:06:58.210Z,9.23
2023-05-08T05:09:27.525Z,9.35
2023-05-08T05:11:58.161Z,9.48
2023-05-08T05:14:27.671Z,9.63
2023-05-08T05:16:56.754Z,9.77
2023-05-08T05:19:25.844Z,9.89
2023-05-08T05:21:54.623Z,9.98
2023-05-08T05:24:23.634Z,10.04
2023-05-08T05:26:54.352Z,10.10
2023-05-08T05:29:23.758Z,10.12
2023-05-08T05:31:52.923Z,10.14
2023-05-08T05:34:22.351Z,10.18
2023-05-08T05:36:50.953Z,10.23
2023-05-08T05:39:19.733Z,10.31
2023-05-08T05:41:48.420Z,10.39
2023-05-08T05:44:17.096Z,10.49
2023-05-08T05:46:45.841Z,10.56
2023-05-08T05:49:14.474Z,10.64
2023-05-08T05:51:43.167Z,10.73
2023-05-08T05:54:11.956Z,10.82
2023-05-08T05:56:41.041Z,10.94
2023-05-08T05:59:09.835Z,11.08
2023-05-08T06:01:39.677Z,11.17
2023-05-08T06:04:08.254Z,11.24
2023-05-08T06:06:36.919Z,11.30
2023-05-08T06:09:07.346Z,11.35
2023-05-08T06:11:35.766Z,11.42
2023-05-08T06:14:07.383Z,11.52
2023-05-08T06:16:36.513Z,11.64
2023-05-08T06:19:05.572Z,11.78
2023-05-08T06:21:34.775Z,11.90
2023-05-08T06:24:03.968Z,12.00
2023-05-08T06:26:32.830Z,12.08
2023-05-08T06:29:01.744Z,12.14
2023-05-08T06:31:30.606Z,12.21
2023-05-08T06:33:59.436Z,12.29
2023-05-08T06:36:27.905Z,12.25
2023-05-08T06:38:57.128Z,12.39
2023-05-08T06:41:26.822Z,12.50
2023-05-08T06:43:56.477Z,12.62
2023-05-08T06:46:25.918Z,12.67
2023-05-08T06:48:54.576Z,12.71
2023-05-08T06:51:23.407Z,12.73
2023-05-08T06:53:52.202Z,12.80
2023-05-08T06:56:23.198Z,12.86
2023-05-08T06:59:04.496Z,12.90
2023-05-08T07:01:37.631Z,12.96
2023-05-08T07:04:06.561Z,12.98
2023-05-08T07:06:35.308Z,12.98
2023-05-08T07:09:04.288Z,13.03
2023-05-08T07:11:32.985Z,13.07
2023-05-08T07:14:01.553Z,13.14
2023-05-08T07:16:30.170Z,13.24
2023-05-08T07:18:59.642Z,13.31
2023-05-08T07:21:29.694Z,13.39
2023-05-08T07:23:58.330Z,13.46
2023-05-08T07:26:27.018Z,13.54
2023-05-08T07:28:55.913Z,13.58
2023-05-08T07:31:32.451Z,13.62
2023-05-08T07:34:02.722Z,13.67
2023-05-08T07:36:32.635Z,13.69
2023-05-08T07:39:01.442Z,13.70
2023-05-08T07:41:30.207Z,13.72
2023-05-08T07:43:59.320Z,13.72
2023-05-08T07:46:28.143Z,13.75
2023-05-08T07:48:56.871Z,13.80
2023-05-08T07:51:25.679Z,13.86
2023-05-08T07:53:55.375Z,13.92
2023-05-08T07:56:23.842Z,13.97
2023-05-08T07:58:52.524Z,14.04
2023-05-08T08:01:21.424Z,14.14
2023-05-08T08:03:50.393Z,14.24
2023-05-08T08:06:19.112Z,14.36
2023-05-08T08:08:47.888Z,14.43
2023-05-08T08:11:16.915Z,14.49
2023-05-08T08:13:45.881Z,14.58
2023-05-08T08:16:14.699Z,14.65
2023-05-08T08:18:43.256Z,14.66
2023-05-08T08:21:12.477Z,14.71
2023-05-08T08:23:41.851Z,14.73
2023-05-08T08:26:10.345Z,14.81
2023-05-08T08:28:39.127Z,14.85
2023-05-08T08:31:07.740Z,14.85
2023-05-08T08:33:36.712Z,14.87
2023-05-08T08:36:05.809Z,14.87
2023-05-08T08:38:34.481Z,14.90
2023-05-08T08:41:04.265Z,14.98
2023-05-08T08:43:33.190Z,15.05
2023-05-08T08:46:11.010Z,15.13
2023-05-08T08:48:46.371Z,15.16
2023-05-08T08:51:24.862Z,15.20
2023-05-08T08:54:03.869Z,15.24
2023-05-08T08:56:33.685Z,15.34
2023-05-08T08:59:03.926Z,15.46
2023-05-08T09:01:36.501Z,15.53
2023-05-08T09:04:05.905Z,15.58
2023-05-08T09:06:38.670Z,15.63
2023-05-08T09:09:07.467Z,15.69
2023-05-08T09:11:37.655Z,15.68
2023-05-08T09:14:06.676Z,15.67
2023-05-08T09:16:35.813Z,15.66
2023-05-08T09:19:04.914Z,15.65
2023-05-08T09:21:34.474Z,15.68
2023-05-08T09:24:05.579Z,15.71
2023-05-08T09:26:39.757Z,15.74
2023-05-08T09:29:22.476Z,15.81
2023-05-08T09:31:53.035Z,15.86
2023-05-08T09:34:28.469Z,15.97
2023-05-08T09:37:12.811Z,16.12
2023-05-08T09:39:43.875Z,16.20
2023-05-08T09:42:15.959Z,16.24
2023-05-08T09:44:46.773Z,16.28
2023-05-08T09:47:23.702Z,16.30
2023-05-08T09:50:07.637Z,16.27
2023-05-08T09:52:38.778Z,16.32
2023-05-08T09:55:11.301Z,16.39
2023-05-08T09:57:52.348Z,16.42
2023-05-08T10:00:21.448Z,16.52
2023-05-08T10:03:00.754Z,16.61
2023-05-08T10:05:32.254Z,16.73
2023-05-08T10:08:19.961Z,16.82
2023-05-08T10:10:48.757Z,16.91
2023-05-08T10:13:17.556Z,16.95
2023-05-08T10:15:53.273Z,16.95
2023-05-08T10:18:29.245Z,16.95
2023-05-08T10:21:06.919Z,16.96
2023-05-08T10:23:38.299Z,16.98
2023-05-08T10:26:16.493Z,16.96
2023-05-08T10:28:50.605Z,16.98
2023-05-08T10:31:22.436Z,16.98
2023-05-08T10:33:55.261Z,16.93
2023-05-08T10:36:25.062Z,16.88
2023-05-08T10:38:54.996Z,16.84
2023-05-08T10:41:24.087Z,16.86
2023-05-08T10:43:53.589Z,16.85
2023-05-08T10:46:33.040Z,16.89
2023-05-08T10:49:16.135Z,16.96
2023-05-08T10:51:53.436Z,17.02
2023-05-08T10:54:40.036Z,17.12
2023-05-08T10:57:12.810Z,17.16
2023-05-08T10:59:47.718Z,17.12
2023-05-08T11:02:17.211Z,16.98
2023-05-08T11:04:46.033Z,16.88
2023-05-08T11:07:17.806Z,16.83
2023-05-08T11:09:48.022Z,16.84
2023-05-08T11:12:31.898Z,16.89
2023-05-08T11:15:10.087Z,16.94
2023-05-08T11:17:40.461Z,17.03
2023-05-08T11:20:09.389Z,17.13
2023-05-08T11:22:39.004Z,17.18
2023-05-08T11:25:10.367Z,17.20
2023-05-08T11:27:42.724Z,17.23
2023-05-08T11:30:32.614Z,17.21
2023-05-08T11:33:04.696Z,17.20
2023-05-08T11:35:51.994Z,17.28
2023-05-08T11:38:31.645Z,17.37
2023-05-08T11:41:07.750Z,17.44
2023-05-08T11:43:39.236Z,17.52
2023-05-08T11:46:14.902Z,17.55
2023-05-08T11:48:44.192Z,17.51
2023-05-08T11:51:13.914Z,17.47
2023-05-08T11:53:44.117Z,17.47
2023-05-08T11:56:13.020Z,17.46
2023-05-08T11:58:41.907Z,17.51
2023-05-08T12:01:10.725Z,17.55
2023-05-08T12:03:39.583Z,17.61
2023-05-08T12:06:08.461Z,17.64
2023-05-08T12:08:39.832Z,17.64
2023-05-08T12:11:09.442Z,17.65
2023-05-08T12:13:38.225Z,17.67
2023-05-08T12:16:08.157Z,17.73
2023-05-08T12:18:39.827Z,17.78
2023-05-08T12:21:08.889Z,17.75
2023-05-08T12:23:38.585Z,17.74
2023-05-08T12:26:09.166Z,17.77
2023-05-08T12:28:37.925Z,17.79
2023-05-08T12:31:07.186Z,17.81
2023-05-08T12:33:36.008Z,17.83
2023-05-08T12:36:06.620Z,17.86
2023-05-08T12:38:35.128Z,17.84
2023-05-08T12:41:04.941Z,17.85
2023-05-08T12:43:37.664Z,17.89
2023-05-08T12:46:06.543Z,17.92
2023-05-08T12:48:35.182Z,17.93
2023-05-08T12:51:04.974Z,17.92
2023-05-08T12:53:34.015Z,17.93
2023-05-08T12:56:04.826Z,17.92
2023-05-08T12:58:35.078Z,17.96
2023-05-08T13:01:15.825Z,17.97
2023-05-08T13:03:47.168Z,17.98
2023-05-08T13:06:21.512Z,18.02
2023-05-08T13:08:57.334Z,18.04
2023-05-08T13:11:31.645Z,18.09
2023-05-08T13:14:01.029Z,18.16
2023-05-08T13:16:30.522Z,18.23
2023-05-08T13:18:59.694Z,18.28
2023-05-08T13:21:30.455Z,18.26
2023-05-08T13:24:00.253Z,18.19
2023-05-08T13:26:30.116Z,18.14
2023-05-08T13:28:59.655Z,18.13
2023-05-08T13:31:28.524Z,18.12
2023-05-08T13:33:57.211Z,18.09
2023-05-08T13:36:28.797Z,18.07
2023-05-08T13:38:57.953Z,18.05
2023-05-08T13:41:27.270Z,18.04
2023-05-08T13:43:56.342Z,18.01
2023-05-08T13:46:25.689Z,17.97
2023-05-08T13:48:55.377Z,17.97
2023-05-08T13:51:25.310Z,17.98
2023-05-08T13:53:54.169Z,17.96
2023-05-08T13:56:26.658Z,17.95
2023-05-08T13:58:57.787Z,17.95
2023-05-08T14:01:28.413Z,17.93
2023-05-08T14:03:57.636Z,17.95
2023-05-08T14:06:28.517Z,17.97
2023-05-08T14:09:01.131Z,17.93
2023-05-08T14:11:32.693Z,17.99
2023-05-08T14:14:04.551Z,18.01
2023-05-08T14:16:37.476Z,18.03
2023-05-08T14:19:09.190Z,18.04
2023-05-08T14:21:42.169Z,18.02
2023-05-08T14:24:12.406Z,18.00
2023-05-08T14:26:45.260Z,17.98
2023-05-08T14:29:19.852Z,18.00
2023-05-08T14:31:49.859Z,18.03
2023-05-08T14:34:22.216Z,18.07
2023-05-08T14:36:52.949Z,18.08
2023-05-08T14:39:22.060Z,18.11
2023-05-08T14:42:14.210Z,18.14
2023-05-08T14:44:42.954Z,18.16
2023-05-08T14:47:12.546Z,18.18
2023-05-08T14:49:42.467Z,18.17
2023-05-08T14:52:11.372Z,18.13
2023-05-08T14:54:40.537Z,18.11
2023-05-08T14:57:09.903Z,18.07
2023-05-08T15:02:30.486Z,18.09
2023-05-08T15:05:01.209Z,18.08
2023-05-08T15:07:31.649Z,18.07
2023-05-08T15:10:02.491Z,18.08
2023-05-08T15:12:33.232Z,18.06
2023-05-08T15:15:04.360Z,18.05
2023-05-08T15:17:37.111Z,18.05
2023-05-08T15:20:08.324Z,18.02
2023-05-08T15:22:37.853Z,18.01
2023-05-08T15:25:09.838Z,18.02
2023-05-08T15:27:43.453Z,18.00
2023-05-08T15:30:16.278Z,17.98
2023-05-08T15:32:46.286Z,18.00
2023-05-08T15:35:18.230Z,18.01
2023-05-08T15:37:49.395Z,18.00
2023-05-08T15:40:20.719Z,17.95
2023-05-08T15:42:50.820Z,17.90
2023-05-08T15:45:20.307Z,17.87
2023-05-08T15:47:50.168Z,17.86
2023-05-08T15:50:20.131Z,17.81
2023-05-08T15:52:52.146Z,17.76
2023-05-08T15:55:28.368Z,17.75
2023-05-08T15:57:58.812Z,17.72
2023-05-08T16:00:43.301Z,17.69
2023-05-08T16:03:14.365Z,17.64
2023-05-08T16:05:45.545Z,17.64
2023-05-08T16:08:16.367Z,17.60
2023-05-08T16:10:45.285Z,17.56
2023-05-08T16:13:15.424Z,17.54
2023-05-08T16:15:46.984Z,17.51
2023-05-08T16:18:17.266Z,17.46
2023-05-08T16:20:46.553Z,17.44
2023-05-08T16:23:15.402Z,17.44
2023-05-08T16:25:45.276Z,17.44
2023-05-08T16:28:14.559Z,17.41
2023-05-08T16:30:43.724Z,17.38
2023-05-08T16:33:13.146Z,17.36
2023-05-08T16:35:43.009Z,17.33
2023-05-08T16:38:11.849Z,17.30
2023-05-08T16:40:42.172Z,17.28
2023-05-08T16:43:12.094Z,17.23
2023-05-08T16:45:43.310Z,17.18
2023-05-08T16:48:12.450Z,17.11
2023-05-08T16:50:41.945Z,17.02
2023-05-08T16:53:11.176Z,16.98
2023-05-08T16:55:40.127Z,16.94
2023-05-08T16:58:09.325Z,16.91
2023-05-08T17:00:37.814Z,16.87
2023-05-08T17:03:06.428Z,16.80
2023-05-08T17:05:35.885Z,16.75
2023-05-08T17:08:05.088Z,16.70
2023-05-08T17:10:34.001Z,16.67
2023-05-08T17:13:02.995Z,16.65
2023-05-08T17:15:32.698Z,16.61
2023-05-08T17:18:01.948Z,16.58
2023-05-08T17:20:31.509Z,16.55
2023-05-08T17:23:03.175Z,16.52
2023-05-08T17:25:33.879Z,16.47
2023-05-08T17:28:03.290Z,16.43
2023-05-08T17:30:32.271Z,16.38
2023-05-08T17:33:01.444Z,16.35
2023-05-08T17:35:31.085Z,16.31
2023-05-08T17:38:01.604Z,16.28
2023-05-08T17:40:32.143Z,16.25
2023-05-08T17:43:02.108Z,16.23
2023-05-08T17:45:33.170Z,16.22
2023-05-08T17:48:02.858Z,16.22
2023-05-08T17:50:34.498Z,16.24
2023-05-08T17:53:06.434Z,16.28
2023-05-08T17:55:41.627Z,16.47
2023-05-08T17:58:15.251Z,17.13
2023-05-08T18:00:58.390Z,18.19
2023-05-08T18:03:29.082Z,18.77
2023-05-08T18:06:01.231Z,18.56
2023-05-08T18:08:34.707Z,18.09
2023-05-08T18:11:06.022Z,17.68
2023-05-08T18:13:38.032Z,17.28
2023-05-08T18:16:08.572Z,16.92
2023-05-08T18:18:37.635Z,16.61
2023-05-08T18:21:06.727Z,16.28
2023-05-08T18:23:36.036Z,16.07
2023-05-08T18:26:05.388Z,15.80
2023-05-08T18:28:36.423Z,15.59
2023-05-08T18:31:05.245Z,15.38
2023-05-08T18:33:34.872Z,15.20
2023-05-08T18:36:07.502Z,15.03
2023-05-08T18:38:36.823Z,14.84
2023-05-08T18:41:06.379Z,14.67
2023-05-08T18:43:37.452Z,14.51
2023-05-08T18:46:17.923Z,14.35
2023-05-08T18:48:47.157Z,14.22
2023-05-08T18:51:16.185Z,14.10
2023-05-08T18:53:45.458Z,14.00
2023-05-08T18:56:14.337Z,13.89
2023-05-08T18:58:43.214Z,13.80
2023-05-08T19:01:12.732Z,13.71
2023-05-08T19:03:42.565Z,13.62
2023-05-08T19:06:12.808Z,13.54
2023-05-08T19:08:42.190Z,13.44
2023-05-08T19:11:11.263Z,13.37
2023-05-08T19:13:40.355Z,13.29
2023-05-08T19:16:09.094Z,13.21
2023-05-08T19:18:38.772Z,13.13
2023-05-08T19:21:08.699Z,13.06
2023-05-08T19:23:38.305Z,12.98
2023-05-08T19:26:07.572Z,12.92
2023-05-08T19:28:36.592Z,12.78
2023-05-08T19:31:05.782Z,12.75
2023-05-08T19:33:35.382Z,12.68
2023-05-08T19:36:05.615Z,12.62
2023-05-08T19:38:34.401Z,12.54
2023-05-08T19:41:03.485Z,12.48
2023-05-08T19:43:32.938Z,12.40
2023-05-08T19:46:02.108Z,12.34
2023-05-08T19:48:33.678Z,12.28
2023-05-08T19:51:10.450Z,12.21
2023-05-08T19:53:40.434Z,12.14
2023-05-08T19:56:09.581Z,12.08
2023-05-08T19:58:39.136Z,12.01
2023-05-08T20:01:08.380Z,11.93
2023-05-08T20:03:38.913Z,11.87
2023-05-08T20:06:08.722Z,11.81
2023-05-08T20:08:38.843Z,11.76
2023-05-08T20:11:12.001Z,11.72
2023-05-08T20:13:41.124Z,11.68
2023-05-08T20:16:10.776Z,11.63
2023-05-08T20:18:40.628Z,11.58
2023-05-08T20:21:21.364Z,11.53
2023-05-08T20:23:50.282Z,11.48
2023-05-08T20:26:19.261Z,11.45
2023-05-08T20:28:48.254Z,11.40
2023-05-08T20:31:17.786Z,11.35
2023-05-08T20:33:46.654Z,11.30
2023-05-08T20:36:15.640Z,11.26
2023-05-08T20:38:44.482Z,11.21
2023-05-08T20:41:13.626Z,11.16
2023-05-08T20:43:42.907Z,11.11
2023-05-08T20:46:12.066Z,11.04
2023-05-08T20:48:41.219Z,11.00
2023-05-08T20:51:10.618Z,10.97
2023-05-08T20:53:39.301Z,10.94
2023-05-08T20:56:09.361Z,10.90
2023-05-08T20:58:38.313Z,10.86
2023-05-08T21:01:07.229Z,10.82
2023-05-08T21:03:36.103Z,10.78
2023-05-08T21:06:05.138Z,10.74
2023-05-08T21:08:33.910Z,10.65
2023-05-08T21:11:02.880Z,10.64
2023-05-08T21:13:32.386Z,10.59
2023-05-08T21:16:01.110Z,10.54
2023-05-08T21:18:29.967Z,10.51
2023-05-08T21:20:58.751Z,10.48
2023-05-08T21:23:27.438Z,10.44
2023-05-08T21:25:56.631Z,10.40
2023-05-08T21:28:25.370Z,10.36
2023-05-08T21:30:53.787Z,10.31
2023-05-08T21:33:22.276Z,10.26
2023-05-08T21:35:50.958Z,10.22
2023-05-08T21:38:19.574Z,10.18
2023-05-08T21:40:48.130Z,10.14
2023-05-08T21:43:16.486Z,10.10
2023-05-08T21:45:45.102Z,10.07
2023-05-08T21:48:13.793Z,10.02
2023-05-08T21:50:42.372Z,9.97
2023-05-08T21:53:11.151Z,9.94
2023-05-08T21:55:39.528Z,9.88
2023-05-08T21:58:08.025Z,9.85
2023-05-08T22:00:36.800Z,9.83
2023-05-08T22:03:05.764Z,9.79
2023-05-08T22:05:34.476Z,9.74
2023-05-08T22:08:02.793Z,9.70
2023-05-08T22:10:31.457Z,9.67
2023-05-08T22:13:01.678Z,9.63
2023-05-08T22:15:31.048Z,9.59
2023-05-08T22:18:00.811Z,9.56
2023-05-08T22:20:29.464Z,9.53
2023-05-08T22:22:58.456Z,9.51
2023-05-08T22:25:27.352Z,9.48
2023-05-08T22:27:55.841Z,9.41
2023-05-08T22:30:25.643Z,9.42
2023-05-08T22:32:57.947Z,9.39
2023-05-08T22:35:27.864Z,9.36
2023-05-08T22:37:59.598Z,9.32
2023-05-08T22:40:29.084Z,9.28
2023-05-08T22:43:01.356Z,9.24
2023-05-08T22:45:29.847Z,9.21
2023-05-08T22:47:58.548Z,9.16
2023-05-08T22:50:27.120Z,9.10
2023-05-08T22:52:55.702Z,9.02
2023-05-08T22:55:24.817Z,8.94
2023-05-08T22:57:53.402Z,8.87
2023-05-08T23:00:21.850Z,8.79
2023-05-08T23:02:50.689Z,8.74
2023-05-08T23:05:19.118Z,8.68
2023-05-08T23:07:47.565Z,8.62
2023-05-08T23:10:16.298Z,8.59
2023-05-08T23:12:44.920Z,8.54
2023-05-08T23:15:13.979Z,8.50
2023-05-08T23:17:42.909Z,8.46
2023-05-08T23:20:11.667Z,8.41
2023-05-08T23:22:40.285Z,8.35
2023-05-08T23:25:12.477Z,8.31
2023-05-08T23:27:41.491Z,8.28
2023-05-08T23:30:13.423Z,8.23
2023-05-08T23:32:42.091Z,8.19
2023-05-08T23:35:11.839Z,8.18
2023-05-08T23:37:40.441Z,8.16
2023-05-08T23:40:09.948Z,8.15
2023-05-08T23:42:40.051Z,8.13
2023-05-08T23:45:09.394Z,8.13
2023-05-08T23:47:37.982Z,8.10
2023-05-08T23:50:07.232Z,8.10
2023-05-08T23:52:35.729Z,8.07
2023-05-08T23:55:04.523Z,8.04
2023-05-08T23:57:33.222Z,8.04
